Vremea mâine în Siret - Romania

Vrei sa afli care e starea vremii acum in Suceava - Romania? Dorim sa iti furnizam starea vremii pentru Suceava - Romania. Starea vremii Suceava - Romania pentru astazi.

Vremea mâine în Siret

Temperatura minimă:
10.6 °C

Temperatura maximă:
22.8 °C

Mâine va fi: Patchy rain nearby
Precipitații: 86 %
Umiditate: 69%
Viteza maximă vânt mâine:
25.2 km/h

Evoluția vremii in Siret pe ore mâine

Ora: 11:00
Temperatura: °C
Sansa de precipitatii: %
Ora Descriere Temp Se simte Precipitatii Umiditate Vant
00:00Senin13.3°12.1°0%76%SSE 13.3 KM/H
01:00Senin12.5°11.4°0%79%SSE 11.5 KM/H
02:00Senin11.7°10.7°0%81%SSE 9.4 KM/H
03:00Senin11.1°10°0%84%SSE 9.7 KM/H
04:00Senin10.8°9.7°0%84%S 9.4 KM/H
05:00Senin10.6°9.7°0%84%S 7.9 KM/H
06:00Senin10.7°9.9°0%82%S 7.9 KM/H
07:00Senin12°11.5°0%79%S 7.2 KM/H
08:00Senin14.5°14.5°0%70%S 7.2 KM/H
09:00Senin17°17°0%63%SSE 8.3 KM/H
10:00Senin18.9°18.9°0%60%SE 10.1 KM/H
11:0020.3°20.3°0%57%SE 11.2 KM/H
12:00Senin21.4°21.4°0%55%SE 13 KM/H
13:00Senin22.3°24.6°0%54%SE 16.6 KM/H
14:00Senin22.6°24.7°0%53%SE 20.5 KM/H
15:00Senin22.8°24.7°0%52%SE 23.8 KM/H
16:00Thundery outbreaks in nearby22.7°24.6°0%51%SE 25.2 KM/H
17:0022.1°24.5°0%53%SSE 24.5 KM/H
18:0021.3°21.3°0%59%SE 22 KM/H
19:00Thundery outbreaks in nearby19.8°19.8°0%64%SE 20.2 KM/H
20:00Ploi usoare17.4°17.4°100%73%SE 17.6 KM/H
21:00Patchy rain nearby15.5°15.5°100%79%SSE 13.7 KM/H
22:00Patchy rain nearby15.1°15.1°100%82%SSE 12.2 KM/H
23:00Burniță ușoară14.4°13.9°100%86%SSE 10.4 KM/H




tutorials